createdAt,value
2019-02-05T00:01:55.046Z,81.93
2019-02-05T00:04:26.156Z,82.12
2019-02-05T00:06:57.208Z,82.61
2019-02-05T00:09:28.119Z,82.90
2019-02-05T00:11:59.431Z,83.02
2019-02-05T00:14:30.248Z,83.40
2019-02-05T00:17:01.165Z,83.80
2019-02-05T00:19:32.280Z,84.20
2019-02-05T00:22:03.248Z,84.74
2019-02-05T00:24:34.213Z,85.50
2019-02-05T00:27:05.161Z,85.98
2019-02-05T00:29:36.172Z,86.46
2019-02-05T00:32:07.146Z,87.03
2019-02-05T00:34:38.063Z,87.56
2019-02-05T00:37:09.059Z,88.20
2019-02-05T00:39:40.100Z,88.56
2019-02-05T00:42:11.038Z,88.98
2019-02-05T00:44:42.026Z,89.28
2019-02-05T00:47:12.423Z,89.52
2019-02-05T00:49:43.709Z,89.93
2019-02-05T00:52:14.574Z,90.17
2019-02-05T00:54:45.421Z,90.29
2019-02-05T00:57:17.154Z,90.39
2019-02-05T00:59:49.143Z,90.55
2019-02-05T01:02:21.285Z,90.73
2019-02-05T01:04:52.329Z,90.97
2019-02-05T01:07:25.290Z,91.17
2019-02-05T01:09:56.438Z,91.10
2019-02-05T01:12:27.396Z,91.25
2019-02-05T01:14:58.281Z,91.31
2019-02-05T01:17:29.442Z,91.35
2019-02-05T01:20:00.365Z,91.58
2019-02-05T01:22:30.798Z,91.79
2019-02-05T01:25:01.360Z,92.02
2019-02-05T01:27:33.408Z,92.26
2019-02-05T01:30:07.123Z,92.60
2019-02-05T01:32:38.497Z,92.90
2019-02-05T01:35:11.567Z,93.04
2019-02-05T01:37:44.623Z,93.21
2019-02-05T01:40:17.990Z,93.38
2019-02-05T01:42:50.413Z,93.65
2019-02-05T01:45:21.604Z,93.87
2019-02-05T01:47:52.919Z,94.04
2019-02-05T01:50:26.762Z,94.27
2019-02-05T01:52:59.622Z,94.52
2019-02-05T01:55:30.479Z,94.70
2019-02-05T01:58:01.847Z,94.90
2019-02-05T02:00:35.878Z,95.09
2019-02-05T02:03:06.750Z,95.32
2019-02-05T02:05:39.527Z,95.52
2019-02-05T02:08:11.523Z,95.67
2019-02-05T02:10:43.840Z,95.88
2019-02-05T02:13:15.721Z,96.01
2019-02-05T02:15:46.844Z,96.07
2019-02-05T02:18:17.614Z,96.19
2019-02-05T02:20:48.655Z,96.19
2019-02-05T02:23:19.681Z,96.05
2019-02-05T02:25:50.612Z,95.97
2019-02-05T02:28:21.876Z,95.95
2019-02-05T02:30:52.794Z,95.87
2019-02-05T02:33:23.768Z,95.90
2019-02-05T02:35:56.720Z,95.96
2019-02-05T02:38:27.803Z,96.03
2019-02-05T02:40:58.732Z,96.13
2019-02-05T02:43:29.870Z,96.29
2019-02-05T02:46:00.788Z,96.37
2019-02-05T02:48:31.179Z,96.45
2019-02-05T02:51:02.873Z,96.40
2019-02-05T02:53:33.811Z,96.43
2019-02-05T02:56:06.816Z,96.43
2019-02-05T02:58:39.836Z,96.50
2019-02-05T03:01:11.855Z,96.52
2019-02-05T03:03:42.924Z,96.67
2019-02-05T03:06:13.836Z,96.88
2019-02-05T03:08:44.996Z,96.92
2019-02-05T03:11:15.894Z,97.02
2019-02-05T03:13:46.864Z,97.20
2019-02-05T03:16:19.869Z,97.38
2019-02-05T03:18:51.028Z,97.48
2019-02-05T03:21:21.929Z,97.59
2019-02-05T03:23:52.899Z,97.79
2019-02-05T03:26:23.881Z,97.88
2019-02-05T03:28:55.052Z,98.00
2019-02-05T03:31:25.958Z,98.12
2019-02-05T03:33:57.046Z,98.21
2019-02-05T03:36:27.938Z,98.24
2019-02-05T03:38:59.818Z,98.24
2019-02-05T03:41:30.717Z,98.17
2019-02-05T03:44:04.058Z,98.14
2019-02-05T03:46:35.356Z,98.12
2019-02-05T03:49:06.243Z,98.12
2019-02-05T03:52:18.054Z,98.18
2019-02-05T03:55:28.785Z,98.14
2019-02-05T03:58:43.924Z,98.14
2019-02-05T04:02:09.053Z,97.98
2019-02-05T04:05:25.231Z,97.92
2019-02-05T04:08:18.892Z,97.97
2019-02-05T04:11:31.747Z,97.97
2019-02-05T04:15:00.779Z,97.97
2019-02-05T04:17:46.183Z,97.85
2019-02-05T04:20:55.317Z,97.76
2019-02-05T04:24:05.796Z,97.71
2019-02-05T04:27:24.315Z,97.59
2019-02-05T04:30:42.524Z,97.60
2019-02-05T04:33:37.973Z,97.58
2019-02-05T04:36:52.066Z,97.55
2019-02-05T04:39:49.829Z,97.47
2019-02-05T04:43:03.152Z,97.39
2019-02-05T04:46:20.218Z,97.47
2019-02-05T04:49:25.368Z,97.41
2019-02-05T04:52:23.927Z,97.30
2019-02-05T04:55:12.540Z,97.32
2019-02-05T04:58:15.293Z,97.27
2019-02-05T05:01:33.460Z,97.25
2019-02-05T05:04:14.624Z,97.43
2019-02-05T05:07:22.233Z,97.33
2019-02-05T05:09:59.010Z,97.33
2019-02-05T05:12:31.036Z,97.51
2019-02-05T05:15:02.382Z,97.49
2019-02-05T05:17:34.529Z,97.51
2019-02-05T05:20:09.155Z,97.59
2019-02-05T05:22:40.668Z,97.73
2019-02-05T05:25:12.300Z,97.88
2019-02-05T05:27:43.574Z,98.06
2019-02-05T05:30:17.869Z,98.41
2019-02-05T05:32:48.449Z,98.50
2019-02-05T05:35:19.518Z,98.56
2019-02-05T05:37:50.445Z,98.72
2019-02-05T05:40:21.057Z,98.79
2019-02-05T05:42:52.549Z,98.87
2019-02-05T05:45:25.511Z,98.80
2019-02-05T05:47:57.690Z,98.77
2019-02-05T05:50:29.543Z,98.73
2019-02-05T05:53:00.825Z,98.60
2019-02-05T05:55:31.334Z,98.40
2019-02-05T05:58:05.046Z,98.25
2019-02-05T06:00:36.562Z,98.06
2019-02-05T06:03:08.722Z,97.72
2019-02-05T06:05:39.609Z,97.53
2019-02-05T06:08:11.757Z,97.45
2019-02-05T06:10:42.514Z,97.07
2019-02-05T06:13:13.431Z,96.29
2019-02-05T06:15:44.515Z,95.42
2019-02-05T06:18:15.377Z,94.57
2019-02-05T06:20:45.795Z,93.51
2019-02-05T06:23:16.697Z,93.05
2019-02-05T06:25:47.934Z,92.26
2019-02-05T06:28:18.890Z,91.78
2019-02-05T06:30:49.729Z,91.15
2019-02-05T06:33:23.400Z,90.75
2019-02-05T06:35:54.815Z,90.58
2019-02-05T06:38:27.123Z,90.83
2019-02-05T06:41:00.049Z,91.14
2019-02-05T06:43:30.606Z,91.53
2019-02-05T06:46:02.932Z,91.92
2019-02-05T06:48:33.862Z,91.63
2019-02-05T06:51:05.366Z,91.75
2019-02-05T06:53:36.837Z,91.62
2019-02-05T06:56:07.356Z,91.66
2019-02-05T06:58:46.516Z,91.50
2019-02-05T07:01:13.039Z,91.25
2019-02-05T07:03:43.866Z,90.85
2019-02-05T07:06:14.868Z,89.86
2019-02-05T07:08:45.865Z,87.91
2019-02-05T07:11:16.996Z,86.28
2019-02-05T07:13:47.951Z,84.87
2019-02-05T07:16:19.549Z,84.21
2019-02-05T07:18:49.950Z,83.61
2019-02-05T07:21:21.098Z,82.92
2019-02-05T07:23:54.289Z,82.57
2019-02-05T07:26:26.231Z,82.42
2019-02-05T07:29:00.033Z,82.30
2019-02-05T07:31:30.094Z,82.20
2019-02-05T07:34:01.065Z,81.46
2019-02-05T07:36:31.487Z,81.87
2019-02-05T07:39:04.863Z,81.40
2019-02-05T07:41:37.409Z,81.55
2019-02-05T07:44:08.115Z,81.43
2019-02-05T07:46:39.118Z,81.64
2019-02-05T07:49:10.226Z,81.59
2019-02-05T07:51:41.169Z,81.58
2019-02-05T07:54:12.103Z,81.11
2019-02-05T07:56:43.259Z,80.04
2019-02-05T07:59:16.200Z,79.29
2019-02-05T08:01:48.114Z,77.63
2019-02-05T08:04:21.259Z,77.89
2019-02-05T08:06:52.149Z,78.51
2019-02-05T08:09:23.164Z,77.75
2019-02-05T08:11:54.232Z,77.48
2019-02-05T08:14:25.131Z,76.23
2019-02-05T08:16:56.528Z,75.51
2019-02-05T08:19:27.404Z,74.79
2019-02-05T08:21:58.274Z,74.54
2019-02-05T08:24:30.305Z,75.18
2019-02-05T08:27:01.610Z,75.42
2019-02-05T08:29:34.305Z,75.86
2019-02-05T08:32:05.244Z,75.14
2019-02-05T08:34:36.221Z,73.86
2019-02-05T08:37:07.237Z,73.64
2019-02-05T08:39:38.212Z,72.70
2019-02-05T08:42:09.282Z,72.66
2019-02-05T08:44:40.061Z,71.72
2019-02-05T08:47:11.202Z,71.57
2019-02-05T08:49:42.050Z,71.94
2019-02-05T08:52:15.594Z,71.83
2019-02-05T08:54:46.351Z,71.72
2019-02-05T08:57:18.462Z,71.84
2019-02-05T08:59:49.417Z,71.66
2019-02-05T09:02:20.382Z,71.85
2019-02-05T09:04:53.335Z,71.97
2019-02-05T09:07:24.436Z,71.45
2019-02-05T09:09:55.550Z,71.21
2019-02-05T09:12:27.569Z,71.12
2019-02-05T09:14:58.423Z,71.28
2019-02-05T09:17:30.742Z,71.05
2019-02-05T09:20:03.587Z,70.25
2019-02-05T09:22:34.434Z,70.26
2019-02-05T09:25:08.440Z,70.22
2019-02-05T09:27:40.829Z,70.59
2019-02-05T09:30:20.461Z,70.20
2019-02-05T09:32:53.718Z,69.83
2019-02-05T09:35:25.736Z,70.21
2019-02-05T09:37:57.884Z,70.42
2019-02-05T09:40:30.284Z,69.75
2019-02-05T09:43:02.529Z,69.36
2019-02-05T09:45:33.555Z,69.02
2019-02-05T09:48:04.533Z,69.48
2019-02-05T09:50:44.258Z,68.80
2019-02-05T09:53:09.679Z,68.84
2019-02-05T09:55:40.890Z,68.40
2019-02-05T09:58:13.614Z,68.62
2019-02-05T10:00:44.062Z,68.76
2019-02-05T10:03:15.050Z,68.64
2019-02-05T10:05:47.039Z,69.31
2019-02-05T10:08:17.782Z,68.57
2019-02-05T10:10:48.835Z,68.48
2019-02-05T10:13:19.299Z,68.30
2019-02-05T10:15:50.680Z,68.01
2019-02-05T10:18:22.194Z,68.17
2019-02-05T10:20:53.068Z,68.32
2019-02-05T10:23:25.776Z,67.40
2019-02-05T10:25:56.783Z,68.11
2019-02-05T10:28:27.903Z,69.39
2019-02-05T10:30:58.780Z,69.93
2019-02-05T10:33:29.832Z,70.36
2019-02-05T10:36:01.382Z,69.72
2019-02-05T10:38:33.962Z,69.58
2019-02-05T10:41:06.365Z,70.22
2019-02-05T10:43:37.033Z,69.81
2019-02-05T10:46:09.266Z,70.37
2019-02-05T10:48:40.085Z,69.98
2019-02-05T10:51:12.855Z,69.00
2019-02-05T10:53:43.817Z,68.39
2019-02-05T10:56:14.755Z,68.67
2019-02-05T10:58:45.694Z,68.67
2019-02-05T11:01:16.667Z,68.96
2019-02-05T11:03:47.139Z,68.31
2019-02-05T11:06:20.069Z,68.42
2019-02-05T11:08:52.061Z,67.86
2019-02-05T11:11:23.998Z,67.86
2019-02-05T11:13:56.094Z,67.24
2019-02-05T11:16:28.029Z,66.83
2019-02-05T11:18:59.030Z,66.83
2019-02-05T11:21:30.974Z,66.74
2019-02-05T11:24:03.517Z,66.59
2019-02-05T11:26:36.786Z,66.54
2019-02-05T11:29:08.129Z,66.09
2019-02-05T11:31:40.050Z,66.09
2019-02-05T11:34:13.081Z,65.98
2019-02-05T11:36:44.239Z,66.20
2019-02-05T11:39:16.353Z,65.62
2019-02-05T11:41:48.353Z,65.62
2019-02-05T11:44:20.224Z,65.73
2019-02-05T11:46:51.556Z,65.13
2019-02-05T11:49:22.296Z,65.57
2019-02-05T11:51:53.128Z,64.64
2019-02-05T11:54:24.279Z,64.64
2019-02-05T11:56:55.175Z,65.00
2019-02-05T11:59:26.144Z,64.07
2019-02-05T12:01:57.406Z,64.18
2019-02-05T12:04:30.323Z,64.18
2019-02-05T12:07:04.363Z,64.24
2019-02-05T12:09:37.389Z,63.55
2019-02-05T12:12:09.337Z,64.12
2019-02-05T12:14:40.369Z,63.99
2019-02-05T12:17:13.346Z,63.05
2019-02-05T12:19:45.784Z,62.46
2019-02-05T12:22:16.566Z,63.30
2019-02-05T12:24:47.295Z,63.51
2019-02-05T12:27:20.318Z,63.19
2019-02-05T12:29:52.615Z,62.92
2019-02-05T12:32:23.333Z,62.81
2019-02-05T12:34:54.387Z,62.71
2019-02-05T12:37:25.525Z,62.55
2019-02-05T12:39:56.343Z,62.79
2019-02-05T12:42:29.500Z,62.22
2019-02-05T12:45:00.419Z,62.35
2019-02-05T12:47:30.948Z,61.81
2019-02-05T12:50:02.429Z,61.81
2019-02-05T12:52:34.412Z,61.81
2019-02-05T12:55:13.269Z,61.02
2019-02-05T12:57:37.611Z,60.86
2019-02-05T13:00:22.041Z,61.18
2019-02-05T13:02:54.629Z,61.29
2019-02-05T13:05:26.570Z,60.75
2019-02-05T13:07:57.441Z,60.49
2019-02-05T13:10:31.041Z,60.54
2019-02-05T13:13:02.584Z,60.87
2019-02-05T13:15:34.538Z,59.96
2019-02-05T13:18:04.969Z,59.46
2019-02-05T13:20:37.846Z,59.41
2019-02-05T13:23:10.085Z,58.65
2019-02-05T13:25:40.507Z,58.09
2019-02-05T13:28:13.336Z,58.49
2019-02-05T13:30:45.619Z,58.52
2019-02-05T13:33:17.210Z,58.19
2019-02-05T13:35:47.575Z,58.22
2019-02-05T13:38:18.742Z,57.67
2019-02-05T13:40:51.316Z,56.95
2019-02-05T13:43:23.695Z,56.43
2019-02-05T13:45:54.721Z,54.88
2019-02-05T13:48:25.667Z,54.82
2019-02-05T13:50:58.658Z,54.85
2019-02-05T13:53:29.835Z,54.39
2019-02-05T13:56:01.769Z,53.79
2019-02-05T13:58:34.782Z,53.70
2019-02-05T14:01:06.724Z,53.36
2019-02-05T14:03:37.872Z,53.26
2019-02-05T14:06:10.845Z,53.14
2019-02-05T14:08:42.067Z,51.85
2019-02-05T14:11:12.818Z,52.71
2019-02-05T14:13:43.813Z,52.28
2019-02-05T14:16:15.068Z,52.57
2019-02-05T14:18:54.992Z,52.97
2019-02-05T14:21:19.858Z,51.73
2019-02-05T14:23:50.921Z,51.85
2019-02-05T14:26:21.853Z,50.36
2019-02-05T14:28:54.477Z,48.37
2019-02-05T14:31:31.488Z,46.58
2019-02-05T14:34:00.812Z,44.88
2019-02-05T14:36:31.663Z,43.90
2019-02-05T14:39:04.533Z,42.29
2019-02-05T14:41:36.991Z,41.51
2019-02-05T14:44:07.999Z,39.67
2019-02-05T14:46:39.930Z,41.20
2019-02-05T14:49:12.757Z,41.34
2019-02-05T14:51:43.123Z,41.92
2019-02-05T14:54:14.897Z,40.68
2019-02-05T14:56:45.695Z,42.02
2019-02-05T14:59:16.726Z,41.23
2019-02-05T15:01:49.297Z,41.67
2019-02-05T15:04:22.963Z,41.27
2019-02-05T15:06:55.322Z,40.17
2019-02-05T15:09:27.789Z,41.29
2019-02-05T15:12:00.089Z,42.78
2019-02-05T15:14:30.968Z,42.71
2019-02-05T15:17:02.148Z,43.03
2019-02-05T15:19:34.127Z,43.93
2019-02-05T15:22:07.284Z,44.67
2019-02-05T15:24:41.012Z,44.17
2019-02-05T15:27:12.170Z,44.03
2019-02-05T15:29:43.324Z,43.84
2019-02-05T15:32:33.570Z,44.86
2019-02-05T15:35:06.516Z,45.02
2019-02-05T15:37:37.209Z,45.41
2019-02-05T15:40:09.322Z,45.43
2019-02-05T15:42:42.295Z,46.05
2019-02-05T15:45:14.835Z,46.79
2019-02-05T15:47:46.178Z,48.20
2019-02-05T15:50:18.252Z,50.08
2019-02-05T15:52:49.274Z,51.91
2019-02-05T15:55:21.179Z,53.08
2019-02-05T15:57:53.895Z,54.30
2019-02-05T16:00:24.376Z,54.50
2019-02-05T16:02:55.613Z,55.47
2019-02-05T16:05:26.255Z,55.90
2019-02-05T16:07:57.397Z,56.71
2019-02-05T16:10:28.590Z,56.60
2019-02-05T16:13:02.716Z,57.56
2019-02-05T16:15:31.679Z,58.16
2019-02-05T16:18:04.903Z,58.16
2019-02-05T16:20:35.662Z,58.42
2019-02-05T16:23:06.512Z,58.94
2019-02-05T16:25:37.504Z,58.94
2019-02-05T16:28:08.434Z,60.40
2019-02-05T16:30:39.323Z,60.40
2019-02-05T16:33:10.474Z,60.54
2019-02-05T16:35:41.546Z,60.26
2019-02-05T16:38:12.686Z,60.43
2019-02-05T16:40:43.656Z,60.97
2019-02-05T16:43:14.461Z,60.97
2019-02-05T16:45:45.587Z,60.75
2019-02-05T16:48:16.427Z,60.76
2019-02-05T16:50:47.656Z,61.85
2019-02-05T16:53:18.527Z,61.85
2019-02-05T16:55:49.730Z,62.18
2019-02-05T16:58:20.489Z,62.17
2019-02-05T17:00:51.634Z,62.47
2019-02-05T17:03:23.617Z,62.44
2019-02-05T17:05:56.592Z,62.98
2019-02-05T17:08:27.515Z,62.54
2019-02-05T17:10:58.857Z,62.74
2019-02-05T17:13:29.756Z,63.02
2019-02-05T17:16:02.704Z,63.47
2019-02-05T17:18:34.528Z,63.56
2019-02-05T17:21:07.855Z,64.00
2019-02-05T17:23:40.631Z,63.79
2019-02-05T17:26:12.606Z,63.79
2019-02-05T17:28:43.680Z,63.49
2019-02-05T17:31:14.803Z,63.82
2019-02-05T17:33:45.984Z,64.61
2019-02-05T17:36:16.803Z,64.69
2019-02-05T17:38:47.822Z,64.33
2019-02-05T17:41:18.671Z,64.62
2019-02-05T17:43:50.431Z,64.93
2019-02-05T17:46:23.829Z,65.79
2019-02-05T17:48:54.877Z,66.63
2019-02-05T17:51:25.983Z,65.96
2019-02-05T17:53:56.850Z,65.95
2019-02-05T17:56:27.854Z,66.03
2019-02-05T17:58:58.802Z,66.23
2019-02-05T18:01:29.790Z,66.52
2019-02-05T18:04:00.952Z,67.04
2019-02-05T18:06:31.385Z,68.00
2019-02-05T18:09:01.837Z,68.41
2019-02-05T18:11:34.999Z,68.71
2019-02-05T18:14:06.943Z,67.96
2019-02-05T18:16:38.917Z,68.03
2019-02-05T18:19:12.484Z,67.46
2019-02-05T18:21:43.222Z,67.68
2019-02-05T18:24:14.945Z,68.57
2019-02-05T18:26:46.990Z,68.67
2019-02-05T18:29:19.023Z,68.56
2019-02-05T18:31:49.974Z,68.02
2019-02-05T18:34:20.983Z,67.61
2019-02-05T18:36:51.991Z,68.41
2019-02-05T18:39:26.036Z,69.03
2019-02-05T18:41:56.429Z,68.12
2019-02-05T18:44:27.635Z,67.83
2019-02-05T18:46:58.561Z,68.07
2019-02-05T18:49:29.120Z,69.12
2019-02-05T18:51:59.985Z,69.63
2019-02-05T18:54:31.220Z,69.92
2019-02-05T18:57:02.118Z,70.07
2019-02-05T18:59:33.049Z,70.54
2019-02-05T19:02:04.071Z,70.53
2019-02-05T19:04:35.033Z,70.06
2019-02-05T19:07:06.079Z,70.16
2019-02-05T19:09:36.923Z,69.98
2019-02-05T19:12:07.973Z,70.38
2019-02-05T19:14:38.921Z,70.52
2019-02-05T19:17:09.702Z,70.13
2019-02-05T19:19:40.660Z,69.88
2019-02-05T19:22:11.633Z,69.97
2019-02-05T19:25:07.320Z,69.94
2019-02-05T19:27:40.345Z,69.17
2019-02-05T19:30:11.786Z,68.75
2019-02-05T19:32:43.195Z,68.37
2019-02-05T19:35:16.323Z,68.19
2019-02-05T19:37:47.677Z,68.04
2019-02-05T19:40:18.246Z,68.36
2019-02-05T19:42:49.230Z,68.40
2019-02-05T19:45:37.728Z,68.81
2019-02-05T19:48:13.956Z,69.02
2019-02-05T19:50:46.309Z,68.94
2019-02-05T19:53:18.347Z,69.10
2019-02-05T19:55:49.781Z,69.52
2019-02-05T19:58:21.277Z,69.88
2019-02-05T20:00:52.388Z,68.95
2019-02-05T20:03:23.387Z,69.30
2019-02-05T20:05:54.635Z,69.18
2019-02-05T20:08:26.913Z,68.98
2019-02-05T20:10:57.283Z,69.08
2019-02-05T20:13:39.871Z,69.69
2019-02-05T20:16:04.521Z,69.17
2019-02-05T20:18:35.569Z,69.84
2019-02-05T20:21:06.602Z,70.24
2019-02-05T20:23:39.634Z,70.57
2019-02-05T20:26:11.638Z,70.70
2019-02-05T20:28:46.191Z,71.07
2019-02-05T20:31:18.388Z,70.81
2019-02-05T20:33:50.298Z,70.81
2019-02-05T20:36:20.732Z,71.14
2019-02-05T20:38:51.523Z,71.09
2019-02-05T20:41:22.493Z,71.82
2019-02-05T20:43:53.654Z,72.49
2019-02-05T20:46:24.540Z,72.03
2019-02-05T20:48:55.615Z,72.23
2019-02-05T20:51:26.540Z,71.44
2019-02-05T20:53:57.563Z,71.23
2019-02-05T20:56:30.927Z,70.71
2019-02-05T20:59:01.633Z,70.52
2019-02-05T21:01:32.027Z,70.67
2019-02-05T21:04:03.631Z,70.60
2019-02-05T21:06:34.751Z,71.03
2019-02-05T21:09:15.268Z,71.26
2019-02-05T21:11:45.698Z,70.91
2019-02-05T21:14:16.916Z,70.60
2019-02-05T21:16:47.763Z,70.31
2019-02-05T21:19:18.799Z,70.30
2019-02-05T21:21:49.731Z,70.27
2019-02-05T21:24:20.739Z,70.43
2019-02-05T21:26:52.832Z,70.61
2019-02-05T21:29:24.649Z,70.62
2019-02-05T21:31:55.716Z,70.96
2019-02-05T21:34:26.738Z,71.11
2019-02-05T21:36:58.710Z,71.26
2019-02-05T21:39:29.755Z,71.56
2019-02-05T21:42:00.955Z,71.84
2019-02-05T21:44:31.405Z,72.16
2019-02-05T21:47:02.895Z,72.46
2019-02-05T21:49:34.860Z,72.55
2019-02-05T21:52:06.874Z,73.00
2019-02-05T21:54:37.952Z,73.41
2019-02-05T21:57:09.157Z,72.08
2019-02-05T21:59:40.068Z,72.32
2019-02-05T22:02:11.205Z,72.44
2019-02-05T22:04:41.961Z,72.58
2019-02-05T22:07:12.876Z,72.67
2019-02-05T22:09:43.852Z,73.29
2019-02-05T22:12:14.639Z,73.67
2019-02-05T22:14:45.654Z,73.79
2019-02-05T22:17:18.408Z,73.83
2019-02-05T22:19:50.894Z,73.68
2019-02-05T22:22:22.056Z,73.31
2019-02-05T22:24:55.128Z,73.85
2019-02-05T22:27:26.022Z,74.02
2019-02-05T22:29:56.936Z,74.29
2019-02-05T22:32:28.064Z,75.02
2019-02-05T22:34:59.008Z,75.55
2019-02-05T22:37:31.702Z,75.79
2019-02-05T22:40:05.317Z,75.35
2019-02-05T22:42:38.109Z,75.57
2019-02-05T22:45:12.329Z,74.21
2019-02-05T22:47:43.314Z,74.29
2019-02-05T22:50:22.276Z,74.63
2019-02-05T22:52:54.278Z,74.52
2019-02-05T22:55:25.114Z,73.78
2019-02-05T22:57:56.173Z,73.41
2019-02-05T23:01:06.357Z,72.84
2019-02-05T23:03:50.653Z,72.68
2019-02-05T23:07:15.193Z,72.82
2019-02-05T23:09:52.443Z,72.78
2019-02-05T23:12:33.039Z,71.15
2019-02-05T23:15:17.498Z,71.13
2019-02-05T23:17:48.249Z,70.38
2019-02-05T23:20:21.407Z,69.90
2019-02-05T23:22:53.323Z,70.06
2019-02-05T23:25:24.292Z,69.76
2019-02-05T23:27:55.199Z,69.42
2019-02-05T23:30:28.105Z,69.19
2019-02-05T23:33:00.339Z,69.11
2019-02-05T23:35:32.757Z,68.67
2019-02-05T23:38:05.436Z,68.30
2019-02-05T23:40:36.220Z,68.57
2019-02-05T23:43:07.292Z,69.17
2019-02-05T23:45:38.435Z,69.55
2019-02-05T23:48:11.295Z,68.33
2019-02-05T23:50:42.479Z,68.95
2019-02-05T23:53:13.465Z,69.97
2019-02-05T23:55:44.513Z,69.10
2019-02-05T23:58:15.455Z,67.54
